Mount Ayr, Indiana
Current Conditions -  °F | °C
As of 4:15 PM on Saturday 25 Oct 2014 (Local Time) from KRZL Reporting Station
Clear Clear  
Wind Chill: 73°   Ceiling: Unl
Heat Index: 73°   Visibility: 10mi
Dew Point: 37°   Wind: 13mph
Humidity: 27%   Direction: 290°WNW
Pressure: 29.92"   Gusts: 22mph
Location:  40.95°N, 87.3°W
Report Text: KRZL 252115Z AUTO 29011G19KT 10SM CLR 23/03 A2992 RMK AO2
Loading
Personal Weather Stations






























Interactive Weather Map
Tropical Storm Tracking
New forecast layout! Learn more

10-Day Weather Forecast

Advertisements
Track Severe Weather on mobile